Strona główna
METAR-TAF:

METAR-TAF

Lotnisko :

Chièvres, Belgia

Szerokość geograficzna: 50-34N, Długość geograficzna: 003-50E, wysokość: 60 m

Aktualna obserwacja pogody

Raport powstał 37 minut temu, godzina 11:25 UTC
Wiatr 13 kt od północny wschód
Temperatura 12°C
Wilgotność 54%
Ciśnienie 1022 hPa
Widzialność: 9000 m

METAR: EBCV 281125Z AUTO 04013KT 9000 NCD 12/03 Q1022 BLU

czas: 13:02 (12:02 UTC)

Prognoza

Raport powstał 3 godziny i 21 minut temu, godzina 08:41 UTC
Prognoza ważna od 28 godzina 10 UTC do 28 godzina 19 UTC
Wiatr 14 kt od północno-północny wschód w porywach dochodzący do 25 kt
Widzialność 10 km lub więcej
bezchmurnie
Stopniowe zmiany
od 28 godzina 16 UTC do 28 godzina 18 UTC
Rozproszone chmury na wysokości 3500 ft

TAF: EBCV 280841Z 2810/2819 03014G25KT 9999 SKC BECMG 2816/2818 SCT035 BY EBWM

Obserwacja i prognoza pogody dla ponad 4000 lotnisk (raport METAR i TAF).

Dostępne stacje oznaczono żółtymi i czerwonymi punktami na mapie.

Najedź kursorem aby zobaczyć nazwę stacji.

Kliknij aby zobaczyć obserwacje i prognozy pogody.

Aby zmienić mapę: kliknij na zielony przycisk z czarnym krzyżykiem, aby powiększyć; na zielony przycisk z myślnikiem, aby pomniejszyć; na zielone strzałki, aby przejść do map sąsiednich.


METAR-TAF: